createdAt,value
2022-11-15T00:00:18.922Z,9.03
2022-11-15T00:03:05.285Z,9.06
2022-11-15T00:05:51.776Z,9.14
2022-11-15T00:08:37.853Z,9.17
2022-11-15T00:11:24.652Z,9.00
2022-11-15T00:14:10.770Z,8.83
2022-11-15T00:16:56.608Z,8.73
2022-11-15T00:19:42.703Z,8.95
2022-11-15T00:22:35.194Z,9.03
2022-11-15T00:25:21.413Z,9.12
2022-11-15T00:28:07.162Z,9.24
2022-11-15T00:30:53.656Z,9.27
2022-11-15T00:33:39.725Z,9.33
2022-11-15T00:36:26.494Z,9.38
2022-11-15T00:39:12.360Z,9.35
2022-11-15T00:41:59.484Z,9.35
2022-11-15T00:44:45.343Z,9.34
2022-11-15T00:47:32.527Z,9.19
2022-11-15T00:50:20.009Z,9.15
2022-11-15T00:53:05.903Z,9.19
2022-11-15T00:55:52.418Z,9.09
2022-11-15T00:58:38.814Z,9.14
2022-11-15T01:01:25.343Z,9.14
2022-11-15T01:04:11.930Z,9.09
2022-11-15T01:06:58.392Z,9.11
2022-11-15T01:09:44.461Z,9.17
2022-11-15T01:12:31.991Z,9.06
2022-11-15T01:15:18.397Z,8.95
2022-11-15T01:18:05.703Z,8.97
2022-11-15T01:20:51.697Z,8.86
2022-11-15T01:23:37.987Z,8.88
2022-11-15T01:26:26.517Z,8.86
2022-11-15T01:29:12.773Z,8.85
2022-11-15T01:31:58.909Z,8.85
2022-11-15T01:34:44.821Z,8.80
2022-11-15T01:37:30.979Z,8.72
2022-11-15T01:40:16.831Z,8.69
2022-11-15T01:43:29.269Z,8.61
2022-11-15T01:46:36.669Z,8.59
2022-11-15T01:49:29.477Z,8.56
2022-11-15T01:52:22.154Z,8.53
2022-11-15T01:55:21.477Z,8.49
2022-11-15T01:58:09.914Z,8.49
2022-11-15T02:00:56.536Z,8.52
2022-11-15T02:04:14.865Z,8.55
2022-11-15T02:07:05.569Z,8.60
2022-11-15T02:09:52.986Z,8.63
2022-11-15T02:12:39.891Z,8.72
2022-11-15T02:15:40.917Z,8.77
2022-11-15T02:18:34.918Z,8.89
2022-11-15T02:21:42.671Z,8.97
2022-11-15T02:24:43.889Z,9.07
2022-11-15T02:27:57.236Z,8.97
2022-11-15T02:30:51.174Z,8.98
2022-11-15T02:34:20.599Z,8.94
2022-11-15T02:37:53.009Z,9.04
2022-11-15T02:41:10.458Z,8.89
2022-11-15T02:44:24.912Z,8.99
2022-11-15T02:47:18.232Z,9.11
2022-11-15T02:50:18.814Z,9.13
2022-11-15T02:53:05.190Z,9.14
2022-11-15T02:55:54.216Z,9.11
2022-11-15T02:58:55.324Z,9.01
2022-11-15T03:02:05.172Z,9.00
2022-11-15T03:05:18.956Z,9.00
2022-11-15T03:08:30.225Z,8.94
2022-11-15T03:11:21.811Z,8.78
2022-11-15T03:14:30.406Z,8.87
2022-11-15T03:17:35.099Z,8.82
2022-11-15T03:20:21.261Z,8.77
2022-11-15T03:23:11.311Z,8.63
2022-11-15T03:25:59.378Z,8.62
2022-11-15T03:28:56.690Z,8.33
2022-11-15T03:31:53.915Z,8.32
2022-11-15T03:34:53.097Z,8.25
2022-11-15T03:37:50.638Z,8.41
2022-11-15T03:40:51.257Z,8.51
2022-11-15T03:43:59.561Z,8.54
2022-11-15T03:47:15.481Z,8.64
2022-11-15T03:50:12.481Z,8.54
2022-11-15T03:53:00.161Z,8.65
2022-11-15T03:55:46.367Z,8.72
2022-11-15T03:58:32.665Z,8.75
2022-11-15T04:01:18.533Z,8.69
2022-11-15T04:04:05.003Z,8.72
2022-11-15T04:06:51.420Z,8.70
2022-11-15T04:10:00.213Z,8.79
2022-11-15T04:12:48.800Z,8.85
2022-11-15T04:15:35.421Z,8.83
2022-11-15T04:18:22.162Z,8.81
2022-11-15T04:21:28.438Z,8.76
2022-11-15T04:24:16.168Z,8.72
2022-11-15T04:27:02.652Z,8.67
2022-11-15T04:29:48.893Z,8.64
2022-11-15T04:32:34.933Z,8.63
2022-11-15T04:35:20.874Z,8.58
2022-11-15T04:38:09.715Z,8.52
2022-11-15T04:40:55.754Z,8.42
2022-11-15T04:43:42.405Z,8.32
2022-11-15T04:46:29.092Z,8.38
2022-11-15T04:49:15.018Z,8.52
2022-11-15T04:52:00.949Z,8.52
2022-11-15T04:54:47.042Z,8.50
2022-11-15T04:57:33.221Z,8.39
2022-11-15T05:00:20.542Z,8.32
2022-11-15T05:03:25.266Z,8.25
2022-11-15T05:06:11.193Z,8.29
2022-11-15T05:08:57.398Z,8.28
2022-11-15T05:11:47.424Z,8.24
2022-11-15T05:14:34.243Z,8.26
2022-11-15T05:17:20.518Z,8.21
2022-11-15T05:20:07.352Z,8.21
2022-11-15T05:22:56.473Z,8.19
2022-11-15T05:25:42.519Z,8.22
2022-11-15T05:28:28.498Z,8.23
2022-11-15T05:31:16.915Z,8.28
2022-11-15T05:34:06.787Z,8.33
2022-11-15T05:36:52.880Z,8.32
2022-11-15T05:39:38.803Z,8.34
2022-11-15T05:42:28.692Z,8.40
2022-11-15T05:45:15.199Z,8.46
2022-11-15T05:48:07.775Z,8.51
2022-11-15T05:50:54.441Z,8.45
2022-11-15T05:53:40.979Z,8.48
2022-11-15T05:56:27.280Z,8.43
2022-11-15T05:59:13.787Z,8.45
2022-11-15T06:02:00.586Z,8.50
2022-11-15T06:04:48.180Z,8.62
2022-11-15T06:07:35.476Z,8.66
2022-11-15T06:10:22.669Z,8.80
2022-11-15T06:13:08.844Z,8.93
2022-11-15T06:15:58.411Z,8.97
2022-11-15T06:18:44.626Z,8.96
2022-11-15T06:21:30.515Z,8.99
2022-11-15T06:24:17.093Z,8.92
2022-11-15T06:27:03.152Z,8.97
2022-11-15T06:29:50.309Z,9.04
2022-11-15T06:32:36.141Z,9.08
2022-11-15T06:35:22.135Z,9.11
2022-11-15T06:38:11.513Z,9.03
2022-11-15T06:41:08.923Z,9.04
2022-11-15T06:43:55.386Z,9.05
2022-11-15T06:46:41.181Z,9.36
2022-11-15T06:49:27.467Z,9.36
2022-11-15T06:52:13.497Z,9.45
2022-11-15T06:55:00.132Z,9.54
2022-11-15T06:57:53.633Z,9.69
2022-11-15T07:00:40.030Z,9.70
2022-11-15T07:03:26.614Z,9.57
2022-11-15T07:06:12.774Z,9.54
2022-11-15T07:08:58.667Z,9.53
2022-11-15T07:11:44.626Z,9.73
2022-11-15T07:14:30.476Z,9.87
2022-11-15T07:17:16.873Z,9.84
2022-11-15T07:20:03.532Z,9.84
2022-11-15T07:22:49.530Z,10.04
2022-11-15T07:25:35.827Z,10.12
2022-11-15T07:28:22.195Z,10.15
2022-11-15T07:31:10.341Z,10.46
2022-11-15T07:33:56.551Z,10.81
2022-11-15T07:36:43.557Z,11.20
2022-11-15T07:39:29.489Z,11.80
2022-11-15T07:42:33.828Z,12.53
2022-11-15T07:45:24.042Z,13.43
2022-11-15T07:48:09.949Z,13.57
2022-11-15T07:50:55.795Z,14.30
2022-11-15T07:53:45.313Z,14.93
2022-11-15T07:56:31.447Z,15.63
2022-11-15T07:59:17.309Z,15.46
2022-11-15T08:02:04.079Z,14.25
2022-11-15T08:04:50.892Z,15.69
2022-11-15T08:07:39.086Z,15.57
2022-11-15T08:10:25.713Z,17.06
2022-11-15T08:13:13.707Z,16.99
2022-11-15T08:16:02.417Z,18.16
2022-11-15T08:18:48.591Z,16.79
2022-11-15T08:21:34.450Z,15.18
2022-11-15T08:24:21.370Z,14.71
2022-11-15T08:27:16.072Z,14.40
2022-11-15T08:30:04.142Z,13.64
2022-11-15T08:32:52.123Z,13.60
2022-11-15T08:35:38.115Z,13.38
2022-11-15T08:38:24.289Z,12.88
2022-11-15T08:41:36.748Z,12.34
2022-11-15T08:44:23.110Z,12.81
2022-11-15T08:47:13.582Z,13.33
2022-11-15T08:50:02.809Z,13.52
2022-11-15T08:52:49.557Z,13.79
2022-11-15T08:55:40.057Z,13.43
2022-11-15T08:58:26.380Z,12.96
2022-11-15T09:01:19.264Z,13.13
2022-11-15T09:04:07.492Z,13.50
2022-11-15T09:06:53.927Z,13.51
2022-11-15T09:09:40.836Z,13.44
2022-11-15T09:12:27.223Z,12.89
2022-11-15T09:15:13.325Z,13.04
2022-11-15T09:18:00.641Z,12.94
2022-11-15T09:20:46.787Z,13.44
2022-11-15T09:23:32.786Z,14.21
2022-11-15T09:26:20.046Z,14.49
2022-11-15T09:29:06.833Z,14.05
2022-11-15T09:31:54.390Z,13.52
2022-11-15T09:34:40.308Z,13.14
2022-11-15T09:37:27.347Z,13.19
2022-11-15T09:40:18.423Z,13.07
2022-11-15T09:43:35.382Z,12.99
2022-11-15T09:47:10.083Z,13.29
2022-11-15T09:50:12.184Z,13.82
2022-11-15T09:52:46.194Z,14.89
2022-11-15T09:55:22.374Z,16.43
2022-11-15T09:58:01.792Z,18.41
2022-11-15T10:00:47.560Z,21.51
2022-11-15T10:03:30.360Z,19.84
2022-11-15T10:06:04.056Z,19.79
2022-11-15T10:08:52.841Z,18.81
2022-11-15T10:11:39.584Z,16.36
2022-11-15T10:14:20.653Z,17.35
2022-11-15T10:17:06.450Z,17.30
2022-11-15T10:19:47.310Z,17.81
2022-11-15T10:22:52.797Z,17.39
2022-11-15T10:25:29.178Z,16.04
2022-11-15T10:28:17.467Z,17.79
2022-11-15T10:30:53.446Z,17.55
2022-11-15T10:33:40.821Z,19.83
2022-11-15T10:36:13.973Z,22.92
2022-11-15T10:38:51.076Z,23.30
2022-11-15T10:41:39.534Z,20.10
2022-11-15T10:44:07.633Z,19.23
2022-11-15T10:46:47.196Z,17.91
2022-11-15T10:49:23.470Z,17.54
2022-11-15T10:51:57.606Z,18.37
2022-11-15T10:54:42.574Z,16.83
2022-11-15T10:57:47.745Z,17.20
2022-11-15T11:00:23.386Z,16.98
2022-11-15T11:02:56.793Z,16.01
2022-11-15T11:05:42.498Z,15.41
2022-11-15T11:08:17.385Z,15.69
2022-11-15T11:11:03.670Z,16.39
2022-11-15T11:13:40.890Z,15.49
2022-11-15T11:16:14.586Z,15.40
2022-11-15T11:19:24.782Z,16.63
2022-11-15T11:22:13.395Z,16.21
2022-11-15T11:25:02.563Z,16.78
2022-11-15T11:27:43.398Z,16.19
2022-11-15T11:30:45.602Z,19.02
2022-11-15T11:33:23.906Z,18.85
2022-11-15T11:36:06.352Z,20.54
2022-11-15T11:38:59.808Z,20.50
2022-11-15T11:42:19.236Z,18.39
2022-11-15T11:45:07.082Z,19.86
2022-11-15T11:47:52.465Z,19.12
2022-11-15T11:50:27.214Z,20.25
2022-11-15T11:53:23.666Z,21.52
2022-11-15T11:55:57.347Z,19.18
2022-11-15T11:58:48.286Z,17.99
2022-11-15T12:01:38.408Z,18.83
2022-11-15T12:04:23.884Z,17.54
2022-11-15T12:06:57.678Z,16.25
2022-11-15T12:09:45.520Z,17.65
2022-11-15T12:13:09.044Z,19.28
2022-11-15T12:16:15.216Z,18.12
2022-11-15T12:18:50.880Z,16.96
2022-11-15T12:21:49.409Z,16.16
2022-11-15T12:24:53.539Z,15.78
2022-11-15T12:27:51.742Z,15.35
2022-11-15T12:30:22.410Z,15.54
2022-11-15T12:33:00.380Z,15.38
2022-11-15T12:35:38.664Z,15.34
2022-11-15T12:38:11.337Z,15.68
2022-11-15T12:41:29.956Z,15.92
2022-11-15T12:44:00.383Z,15.47
2022-11-15T12:46:29.562Z,15.57
2022-11-15T12:49:31.416Z,15.20
2022-11-15T12:51:59.782Z,15.33
2022-11-15T12:54:31.962Z,14.91
2022-11-15T12:57:08.724Z,14.73
2022-11-15T12:59:57.302Z,14.62
2022-11-15T13:02:41.393Z,14.44
2022-11-15T13:05:21.335Z,14.69
2022-11-15T13:07:48.774Z,14.75
2022-11-15T13:10:28.647Z,14.83
2022-11-15T13:12:56.565Z,14.82
2022-11-15T13:15:45.640Z,15.18
2022-11-15T13:18:41.066Z,15.16
2022-11-15T13:21:44.354Z,15.44
2022-11-15T13:24:17.573Z,15.32
2022-11-15T13:26:45.224Z,15.04
2022-11-15T13:29:19.848Z,15.15
2022-11-15T13:31:48.505Z,15.23
2022-11-15T13:34:50.943Z,15.43
2022-11-15T13:37:22.607Z,15.62
2022-11-15T13:39:50.954Z,15.38
2022-11-15T13:42:22.494Z,15.26
2022-11-15T13:44:57.416Z,15.30
2022-11-15T13:47:28.869Z,15.07
2022-11-15T13:50:02.146Z,15.07
2022-11-15T13:52:36.666Z,15.23
2022-11-15T13:55:15.352Z,15.09
2022-11-15T13:57:52.301Z,15.02
2022-11-15T14:00:35.457Z,14.87
2022-11-15T14:03:22.090Z,14.76
2022-11-15T14:06:16.013Z,14.62
2022-11-15T14:09:24.258Z,14.41
2022-11-15T14:11:57.393Z,14.41
2022-11-15T14:14:28.208Z,14.47
2022-11-15T14:17:01.340Z,14.40
2022-11-15T14:19:29.616Z,14.28
2022-11-15T14:22:26.498Z,14.27
2022-11-15T14:25:12.637Z,14.16
2022-11-15T14:27:42.897Z,14.12
2022-11-15T14:30:18.329Z,14.11
2022-11-15T14:32:51.170Z,14.06
2022-11-15T14:35:24.068Z,14.06
2022-11-15T14:37:51.800Z,14.12
2022-11-15T14:40:23.187Z,14.18
2022-11-15T14:42:51.207Z,14.18
2022-11-15T14:45:22.786Z,14.10
2022-11-15T14:47:53.373Z,14.06
2022-11-15T14:50:22.910Z,14.11
2022-11-15T14:52:52.317Z,14.06
2022-11-15T14:55:36.073Z,13.78
2022-11-15T14:58:06.178Z,13.75
2022-11-15T15:00:35.505Z,13.77
2022-11-15T15:03:04.888Z,13.68
2022-11-15T15:05:38.419Z,13.63
2022-11-15T15:08:08.396Z,13.58
2022-11-15T15:10:45.055Z,13.55
2022-11-15T15:13:25.412Z,13.53
2022-11-15T15:15:53.428Z,13.57
2022-11-15T15:18:22.277Z,13.53
2022-11-15T15:21:04.041Z,13.35
2022-11-15T15:23:32.311Z,13.23
2022-11-15T15:26:00.832Z,13.11
2022-11-15T15:28:34.073Z,12.95
2022-11-15T15:31:05.445Z,12.81
2022-11-15T15:33:33.763Z,12.60
2022-11-15T15:36:02.435Z,12.47
2022-11-15T15:38:32.109Z,12.35
2022-11-15T15:41:02.900Z,12.27
2022-11-15T15:43:31.270Z,12.21
2022-11-15T15:45:58.884Z,12.14
2022-11-15T15:48:26.867Z,12.12
2022-11-15T15:50:55.405Z,12.05
2022-11-15T15:53:23.593Z,11.99
2022-11-15T15:55:51.130Z,11.93
2022-11-15T15:58:18.730Z,11.86
2022-11-15T16:00:47.775Z,11.80
2022-11-15T16:03:15.442Z,11.74
2022-11-15T16:05:43.252Z,11.68
2022-11-15T16:08:20.071Z,11.63
2022-11-15T16:10:48.298Z,11.55
2022-11-15T16:13:16.062Z,11.44
2022-11-15T16:15:44.558Z,11.39
2022-11-15T16:18:19.236Z,11.30
2022-11-15T16:20:52.994Z,11.21
2022-11-15T16:23:22.656Z,11.00
2022-11-15T16:25:56.462Z,10.83
2022-11-15T16:28:31.428Z,10.72
2022-11-15T16:31:13.274Z,10.61
2022-11-15T16:33:41.390Z,10.47
2022-11-15T16:36:30.895Z,10.34
2022-11-15T16:39:00.463Z,10.26
2022-11-15T16:41:28.139Z,10.16
2022-11-15T16:43:55.718Z,10.07
2022-11-15T16:46:27.358Z,10.02
2022-11-15T16:48:55.202Z,10.35
2022-11-15T16:51:23.954Z,10.22
2022-11-15T16:53:51.644Z,10.10
2022-11-15T16:56:29.683Z,9.95
2022-11-15T16:59:00.166Z,10.02
2022-11-15T17:01:35.480Z,9.87
2022-11-15T17:04:12.835Z,9.73
2022-11-15T17:06:42.751Z,9.64
2022-11-15T17:09:20.300Z,9.56
2022-11-15T17:11:48.198Z,9.46
2022-11-15T17:14:17.171Z,9.44
2022-11-15T17:16:45.191Z,9.37
2022-11-15T17:19:19.499Z,9.42
2022-11-15T17:21:51.354Z,9.46
2022-11-15T17:24:21.143Z,9.51
2022-11-15T17:26:49.351Z,9.56
2022-11-15T17:29:17.008Z,9.61
2022-11-15T17:31:44.653Z,9.63
2022-11-15T17:34:12.178Z,9.66
2022-11-15T17:36:39.834Z,9.73
2022-11-15T17:39:07.533Z,9.90
2022-11-15T17:41:36.291Z,9.96
2022-11-15T17:44:05.021Z,9.99
2022-11-15T17:46:34.038Z,10.17
2022-11-15T17:49:01.874Z,10.14
2022-11-15T17:51:29.453Z,10.05
2022-11-15T17:53:57.507Z,9.98
2022-11-15T17:56:30.692Z,9.90
2022-11-15T17:59:00.796Z,9.84
2022-11-15T18:01:32.050Z,9.82
2022-11-15T18:04:03.731Z,9.81
2022-11-15T18:06:35.158Z,9.74
2022-11-15T18:09:05.338Z,9.68
2022-11-15T18:11:43.154Z,9.59
2022-11-15T18:14:15.630Z,9.51
2022-11-15T18:16:43.483Z,9.40
2022-11-15T18:19:13.718Z,9.31
2022-11-15T18:22:05.261Z,9.22
2022-11-15T18:24:38.508Z,9.28
2022-11-15T18:27:07.565Z,9.26
2022-11-15T18:29:37.915Z,9.15
2022-11-15T18:32:12.313Z,9.15
2022-11-15T18:34:40.185Z,9.14
2022-11-15T18:37:08.147Z,9.13
2022-11-15T18:39:35.757Z,9.12
2022-11-15T18:42:03.792Z,9.06
2022-11-15T18:44:31.522Z,8.95
2022-11-15T18:46:59.168Z,8.94
2022-11-15T18:49:26.789Z,8.93
2022-11-15T18:51:54.402Z,8.90
2022-11-15T18:54:24.508Z,8.91
2022-11-15T18:56:55.865Z,8.89
2022-11-15T18:59:23.446Z,8.89
2022-11-15T19:01:52.269Z,8.96
2022-11-15T19:04:22.161Z,9.00
2022-11-15T19:06:51.499Z,8.96
2022-11-15T19:09:19.994Z,8.93
2022-11-15T19:11:51.685Z,8.90
2022-11-15T19:14:24.339Z,8.89
2022-11-15T19:16:52.913Z,8.88
2022-11-15T19:19:27.785Z,8.86
2022-11-15T19:22:00.548Z,8.85
2022-11-15T19:24:29.878Z,8.88
2022-11-15T19:26:57.459Z,8.88
2022-11-15T19:29:24.986Z,8.90
2022-11-15T19:31:52.549Z,8.96
2022-11-15T19:34:20.175Z,9.01
2022-11-15T19:36:49.509Z,8.96
2022-11-15T19:39:18.599Z,8.85
2022-11-15T19:41:46.602Z,8.75
2022-11-15T19:44:14.683Z,8.62
2022-11-15T19:46:42.966Z,8.49
2022-11-15T19:49:11.405Z,8.32
2022-11-15T19:51:41.646Z,8.16
2022-11-15T19:54:10.575Z,8.07
2022-11-15T19:56:39.993Z,8.00
2022-11-15T19:59:08.900Z,7.89
2022-11-15T20:01:39.452Z,7.86
2022-11-15T20:04:09.921Z,7.88
2022-11-15T20:06:41.963Z,7.87
2022-11-15T20:09:15.546Z,7.94
2022-11-15T20:11:43.781Z,7.91
2022-11-15T20:14:13.060Z,7.97
2022-11-15T20:16:41.375Z,7.89
2022-11-15T20:19:09.625Z,7.81
2022-11-15T20:21:38.621Z,7.77
2022-11-15T20:24:07.427Z,7.87
2022-11-15T20:26:35.659Z,8.11
2022-11-15T20:29:03.861Z,8.20
2022-11-15T20:31:32.078Z,8.26
2022-11-15T20:34:03.671Z,8.28
2022-11-15T20:36:31.466Z,8.17
2022-11-15T20:39:00.309Z,8.09
2022-11-15T20:41:28.572Z,7.89
2022-11-15T20:43:56.311Z,7.72
2022-11-15T20:46:24.105Z,7.60
2022-11-15T20:48:51.712Z,7.55
2022-11-15T20:51:20.454Z,7.48
2022-11-15T20:53:48.898Z,7.41
2022-11-15T20:56:21.272Z,7.33
2022-11-15T20:58:50.642Z,7.35
2022-11-15T21:01:23.960Z,7.34
2022-11-15T21:03:55.872Z,7.35
2022-11-15T21:06:26.269Z,7.44
2022-11-15T21:09:13.738Z,7.58
2022-11-15T21:12:00.586Z,7.64
2022-11-15T21:14:28.202Z,7.64
2022-11-15T21:16:55.767Z,7.64
2022-11-15T21:19:29.063Z,7.64
2022-11-15T21:21:59.927Z,7.61
2022-11-15T21:24:27.715Z,7.64
2022-11-15T21:26:56.579Z,7.67
2022-11-15T21:29:25.096Z,7.65
2022-11-15T21:31:53.551Z,7.60
2022-11-15T21:34:21.669Z,7.60
2022-11-15T21:36:49.027Z,7.58
2022-11-15T21:39:16.506Z,7.47
2022-11-15T21:41:44.297Z,7.48
2022-11-15T21:44:11.913Z,7.56
2022-11-15T21:46:40.078Z,7.62
2022-11-15T21:49:08.338Z,7.64
2022-11-15T21:51:36.401Z,7.69
2022-11-15T21:54:04.015Z,7.75
2022-11-15T21:56:32.343Z,7.79
2022-11-15T21:59:00.531Z,7.86
2022-11-15T22:01:47.303Z,7.95
2022-11-15T22:04:15.733Z,8.06
2022-11-15T22:06:44.134Z,8.16
2022-11-15T22:09:12.628Z,8.23
2022-11-15T22:11:40.315Z,8.25
2022-11-15T22:14:08.261Z,8.24
2022-11-15T22:16:37.670Z,8.23
2022-11-15T22:19:06.339Z,8.10
2022-11-15T22:21:36.048Z,7.95
2022-11-15T22:24:03.983Z,7.94
2022-11-15T22:26:31.777Z,7.89
2022-11-15T22:29:02.648Z,7.95
2022-11-15T22:31:30.219Z,8.01
2022-11-15T22:33:58.309Z,8.03
2022-11-15T22:36:38.626Z,8.04
2022-11-15T22:39:10.250Z,7.99
2022-11-15T22:41:38.809Z,7.97
2022-11-15T22:44:06.273Z,7.90
2022-11-15T22:46:33.937Z,7.88
2022-11-15T22:49:03.496Z,7.85
2022-11-15T22:51:31.369Z,7.83
2022-11-15T22:53:59.117Z,7.81
2022-11-15T22:56:26.669Z,7.83
2022-11-15T22:58:54.218Z,7.87
2022-11-15T23:01:23.101Z,7.95
2022-11-15T23:03:50.630Z,7.98
2022-11-15T23:06:18.128Z,7.96
2022-11-15T23:08:45.667Z,8.01
2022-11-15T23:11:31.861Z,8.00
2022-11-15T23:13:59.415Z,7.92
2022-11-15T23:16:34.346Z,7.66
2022-11-15T23:19:09.674Z,7.48
2022-11-15T23:22:04.914Z,7.39
2022-11-15T23:24:34.076Z,7.26
2022-11-15T23:27:09.690Z,7.18
2022-11-15T23:29:57.602Z,7.13
2022-11-15T23:32:43.901Z,7.18
2022-11-15T23:35:11.365Z,7.05
2022-11-15T23:37:38.886Z,7.07
2022-11-15T23:40:07.701Z,7.02
2022-11-15T23:42:36.087Z,6.94
2022-11-15T23:45:05.375Z,6.77
2022-11-15T23:47:33.101Z,6.65
2022-11-15T23:50:00.593Z,6.59
2022-11-15T23:52:28.617Z,6.48
2022-11-15T23:54:56.168Z,6.56
2022-11-15T23:57:23.887Z,6.65
2022-11-15T23:59:51.391Z,6.68
